createdAt,value
2024-02-21T00:00:18.443Z,100262.06
2024-02-21T00:02:45.113Z,100258.03
2024-02-21T00:05:12.427Z,100263.09
2024-02-21T00:07:39.148Z,100261.50
2024-02-21T00:10:06.450Z,100262.63
2024-02-21T00:12:33.129Z,100271.34
2024-02-21T00:14:59.806Z,100265.84
2024-02-21T00:17:27.459Z,100264.25
2024-02-21T00:19:54.311Z,100267.31
2024-02-21T00:22:21.066Z,100256.31
2024-02-21T00:24:47.765Z,100259.88
2024-02-21T00:27:14.424Z,100256.47
2024-02-21T00:29:41.104Z,100260.47
2024-02-21T00:32:07.700Z,100251.88
2024-02-21T00:34:34.845Z,100258.84
2024-02-21T00:37:01.558Z,100254.84
2024-02-21T00:39:28.205Z,100262.34
2024-02-21T00:41:54.827Z,100255.09
2024-02-21T00:44:21.579Z,100252.47
2024-02-21T00:46:48.482Z,100237.56
2024-02-21T00:49:15.296Z,100236.72
2024-02-21T00:51:42.043Z,100239.47
2024-02-21T00:54:08.745Z,100250.00
2024-02-21T00:56:35.467Z,100241.25
2024-02-21T00:59:02.151Z,100233.50
2024-02-21T01:01:28.972Z,100244.28
2024-02-21T01:03:55.826Z,100229.59
2024-02-21T01:06:22.922Z,100235.09
2024-02-21T01:08:49.655Z,100231.88
2024-02-21T01:11:17.209Z,100227.00
2024-02-21T01:13:44.005Z,100223.44
2024-02-21T01:16:10.860Z,100224.09
2024-02-21T01:18:41.012Z,100220.84
2024-02-21T01:21:09.251Z,100227.84
2024-02-21T01:23:36.449Z,100227.84
2024-02-21T01:26:04.183Z,100226.34
2024-02-21T01:28:31.840Z,100228.13
2024-02-21T01:30:58.808Z,100216.09
2024-02-21T01:33:25.536Z,100216.91
2024-02-21T01:35:52.470Z,100211.84
2024-02-21T01:38:19.330Z,100210.13
2024-02-21T01:40:46.180Z,100209.31
2024-02-21T01:43:21.213Z,100205.53
2024-02-21T01:45:51.072Z,100199.13
2024-02-21T01:48:19.417Z,100195.22
2024-02-21T01:50:47.914Z,100199.03
2024-02-21T01:53:19.958Z,100210.38
2024-02-21T01:55:50.157Z,100189.72
2024-02-21T01:58:18.357Z,100193.16
2024-02-21T02:00:46.672Z,100191.53
2024-02-21T02:03:20.444Z,100190.41
2024-02-21T02:05:48.438Z,100179.84
2024-02-21T02:08:19.662Z,100185.69
2024-02-21T02:10:47.293Z,100186.03
2024-02-21T02:13:14.304Z,100196.72
2024-02-21T02:15:45.938Z,100179.84
2024-02-21T02:18:13.830Z,100191.31
2024-02-21T02:20:41.212Z,100173.88
2024-02-21T02:23:27.275Z,100178.72
2024-02-21T02:25:54.180Z,100193.81
2024-02-21T02:28:22.288Z,100183.47
2024-02-21T02:30:49.613Z,100179.56
2024-02-21T02:33:19.067Z,100184.44
2024-02-21T02:35:46.619Z,100171.44
2024-02-21T02:38:14.710Z,100169.44
2024-02-21T02:40:42.808Z,100153.75
2024-02-21T02:43:09.953Z,100166.03
2024-02-21T02:45:36.989Z,100162.69
2024-02-21T02:48:04.182Z,100159.78
2024-02-21T02:50:31.068Z,100166.91
2024-02-21T02:52:57.902Z,100168.03
2024-02-21T02:55:25.063Z,100157.38
2024-02-21T02:57:51.912Z,100165.03
2024-02-21T03:00:18.759Z,100168.16
2024-02-21T03:02:47.503Z,100154.03
2024-02-21T03:05:19.394Z,100152.44
2024-02-21T03:07:47.516Z,100151.97
2024-02-21T03:10:14.882Z,100150.38
2024-02-21T03:12:41.730Z,100150.16
2024-02-21T03:15:08.728Z,100143.25
2024-02-21T03:17:35.804Z,100135.34
2024-02-21T03:20:06.452Z,100143.47
2024-02-21T03:22:36.450Z,100143.47
2024-02-21T03:25:03.326Z,100130.88
2024-02-21T03:27:30.029Z,100127.75
2024-02-21T03:29:56.773Z,100125.59
2024-02-21T03:32:23.507Z,100133.88
2024-02-21T03:34:50.195Z,100139.81
2024-02-21T03:37:16.947Z,100140.19
2024-02-21T03:39:43.563Z,100149.78
2024-02-21T03:42:10.203Z,100149.31
2024-02-21T03:44:37.833Z,100139.78
2024-02-21T03:47:04.620Z,100145.50
2024-02-21T03:49:31.413Z,100148.47
2024-02-21T03:51:58.078Z,100140.88
2024-02-21T03:54:24.827Z,100147.53
2024-02-21T03:56:51.569Z,100149.28
2024-02-21T03:59:18.244Z,100138.78
2024-02-21T04:01:44.972Z,100155.59
2024-02-21T04:04:12.236Z,100153.28
2024-02-21T04:06:47.575Z,100139.84
2024-02-21T04:09:14.246Z,100156.25
2024-02-21T04:11:40.900Z,100156.25
2024-02-21T04:14:08.290Z,100141.22
2024-02-21T04:16:35.839Z,100150.00
2024-02-21T04:19:03.359Z,100158.03
2024-02-21T04:21:30.366Z,100159.22
2024-02-21T04:23:57.066Z,100162.81
2024-02-21T04:26:23.723Z,100162.09
2024-02-21T04:28:50.447Z,100167.41
2024-02-21T04:31:17.233Z,100167.50
2024-02-21T04:33:44.109Z,100165.63
2024-02-21T04:36:10.857Z,100164.34
2024-02-21T04:38:37.522Z,100162.09
2024-02-21T04:41:04.280Z,100152.22
2024-02-21T04:43:30.934Z,100157.72
2024-02-21T04:45:57.693Z,100159.66
2024-02-21T04:48:24.318Z,100152.91
2024-02-21T04:50:50.977Z,100152.91
2024-02-21T04:53:17.711Z,100157.72
2024-02-21T04:55:44.487Z,100160.69
2024-02-21T04:58:11.270Z,100148.88
2024-02-21T05:00:38.016Z,100156.13
2024-02-21T05:03:05.133Z,100160.28
2024-02-21T05:05:32.011Z,100149.06
2024-02-21T05:07:58.885Z,100155.19
2024-02-21T05:10:25.628Z,100158.19
2024-02-21T05:12:52.295Z,100159.59
2024-02-21T05:15:18.967Z,100152.28
2024-02-21T05:17:45.700Z,100149.97
2024-02-21T05:20:12.800Z,100150.44
2024-02-21T05:22:39.600Z,100148.19
2024-02-21T05:25:07.181Z,100148.19
2024-02-21T05:27:33.942Z,100148.19
2024-02-21T05:30:00.609Z,100146.56
2024-02-21T05:32:27.804Z,100148.50
2024-02-21T05:34:54.664Z,100146.09
2024-02-21T05:37:21.436Z,100151.91
2024-02-21T05:39:48.211Z,100151.00
2024-02-21T05:42:14.927Z,100146.97
2024-02-21T05:44:41.599Z,100146.16
2024-02-21T05:47:11.316Z,100137.81
2024-02-21T05:49:38.489Z,100138.94
2024-02-21T05:52:07.164Z,100134.25
2024-02-21T05:54:34.048Z,100136.03
2024-02-21T05:57:00.805Z,100137.63
2024-02-21T05:59:27.448Z,100142.72
2024-02-21T06:01:59.158Z,100133.84
2024-02-21T06:04:26.220Z,100137.78
2024-02-21T06:06:53.080Z,100135.34
2024-02-21T06:09:19.751Z,100140.06
2024-02-21T06:11:47.731Z,100129.84
2024-02-21T06:14:14.562Z,100126.78
2024-02-21T06:16:41.365Z,100132.72
2024-02-21T06:19:10.346Z,100128.50
2024-02-21T06:21:38.092Z,100121.53
2024-02-21T06:24:05.213Z,100122.81
2024-02-21T06:26:31.838Z,100128.63
2024-02-21T06:29:00.944Z,100123.13
2024-02-21T06:31:28.582Z,100122.66
2024-02-21T06:33:55.392Z,100116.03
2024-02-21T06:36:22.059Z,100128.63
2024-02-21T06:38:48.861Z,100129.13
2024-02-21T06:41:20.259Z,100119.72
2024-02-21T06:43:47.825Z,100122.13
2024-02-21T06:46:28.117Z,100123.41
2024-02-21T06:48:55.039Z,100130.97
2024-02-21T06:51:21.880Z,100121.59
2024-02-21T06:53:48.598Z,100129.16
2024-02-21T06:56:15.407Z,100128.50
2024-02-21T06:58:42.425Z,100123.56
2024-02-21T07:01:09.854Z,100124.53
2024-02-21T07:03:36.580Z,100129.00
2024-02-21T07:06:03.798Z,100129.13
2024-02-21T07:08:30.934Z,100129.72
2024-02-21T07:10:57.719Z,100129.63
2024-02-21T07:13:24.558Z,100127.94
2024-02-21T07:15:51.309Z,100124.59
2024-02-21T07:18:18.275Z,100120.16
2024-02-21T07:20:46.200Z,100124.34
2024-02-21T07:23:12.867Z,100119.75
2024-02-21T07:25:40.789Z,100128.59
2024-02-21T07:28:07.962Z,100119.66
2024-02-21T07:30:34.749Z,100135.94
2024-02-21T07:33:01.642Z,100124.22
2024-02-21T07:35:28.395Z,100125.16
2024-02-21T07:37:55.086Z,100123.78
2024-02-21T07:40:21.898Z,100123.22
2024-02-21T07:42:51.668Z,100117.50
2024-02-21T07:45:20.059Z,100114.38
2024-02-21T07:47:47.010Z,100109.81
2024-02-21T07:50:13.853Z,100106.00
2024-02-21T07:52:40.710Z,100110.03
2024-02-21T07:55:07.711Z,100105.31
2024-02-21T07:57:34.433Z,100100.94
2024-02-21T08:00:01.181Z,100096.56
2024-02-21T08:02:27.892Z,100096.13
2024-02-21T08:04:54.703Z,100097.28
2024-02-21T08:07:21.385Z,100099.56
2024-02-21T08:09:48.065Z,100095.22
2024-02-21T08:12:14.711Z,100099.13
2024-02-21T08:14:41.367Z,100095.09
2024-02-21T08:17:08.070Z,100096.25
2024-02-21T08:19:34.913Z,100090.84
2024-02-21T08:22:01.746Z,100085.56
2024-02-21T08:24:28.429Z,100084.28
2024-02-21T08:26:55.099Z,100077.50
2024-02-21T08:29:21.852Z,100077.13
2024-02-21T08:31:48.558Z,100074.88
2024-02-21T08:34:15.349Z,100075.03
2024-02-21T08:36:42.148Z,100063.25
2024-02-21T08:39:10.858Z,100065.88
2024-02-21T08:41:50.861Z,100072.28
2024-02-21T08:44:29.571Z,100074.72
2024-02-21T08:46:57.214Z,100060.56
2024-02-21T08:49:25.105Z,100066.97
2024-02-21T08:51:52.649Z,100068.88
2024-02-21T08:54:19.336Z,100067.66
2024-02-21T08:56:46.010Z,100060.44
2024-02-21T08:59:12.932Z,100063.09
2024-02-21T09:01:39.867Z,100063.00
2024-02-21T09:04:06.753Z,100056.47
2024-02-21T09:06:34.936Z,100060.16
2024-02-21T09:09:02.144Z,100053.88
2024-02-21T09:11:29.369Z,100051.59
2024-02-21T09:13:56.504Z,100045.31
2024-02-21T09:16:24.519Z,100050.94
2024-02-21T09:18:51.926Z,100047.03
2024-02-21T09:21:18.698Z,100042.28
2024-02-21T09:23:46.654Z,100044.00
2024-02-21T09:26:17.293Z,100039.50
2024-02-21T09:28:45.528Z,100038.84
2024-02-21T09:31:12.263Z,100037.50
2024-02-21T09:33:39.026Z,100040.84
2024-02-21T09:36:09.429Z,100039.88
2024-02-21T09:38:36.039Z,100040.00
2024-02-21T09:41:30.877Z,100030.59
2024-02-21T09:43:58.210Z,100035.03
2024-02-21T09:47:18.658Z,100035.25
2024-02-21T09:49:46.908Z,100039.50
2024-02-21T09:52:15.408Z,100035.31
2024-02-21T09:54:46.447Z,100031.66
2024-02-21T09:57:14.418Z,100035.47
2024-02-21T09:59:43.086Z,100030.16
2024-02-21T10:02:10.385Z,100028.13
2024-02-21T10:04:37.384Z,100011.81
2024-02-21T10:07:05.456Z,100007.66
2024-02-21T10:09:32.312Z,100006.59
2024-02-21T10:12:20.305Z,100005.88
2024-02-21T10:14:47.058Z,100003.66
2024-02-21T10:17:19.903Z,99997.81
2024-02-21T10:19:48.615Z,100000.34
2024-02-21T10:22:16.814Z,100001.63
2024-02-21T10:24:43.780Z,99998.56
2024-02-21T10:27:14.163Z,99994.69
2024-02-21T10:29:42.401Z,99991.63
2024-02-21T10:32:14.316Z,99979.81
2024-02-21T10:34:42.900Z,99980.69
2024-02-21T10:37:10.899Z,99976.00
2024-02-21T10:39:40.027Z,99975.88
2024-02-21T10:42:06.979Z,99970.25
2024-02-21T10:44:37.657Z,99964.75
2024-02-21T10:47:10.559Z,99969.66
2024-02-21T10:49:48.665Z,99967.31
2024-02-21T10:52:28.039Z,99955.91
2024-02-21T10:54:59.400Z,99951.28
2024-02-21T10:57:28.652Z,99944.25
2024-02-21T10:59:59.606Z,99932.84
2024-02-21T11:02:29.943Z,99927.38
2024-02-21T11:04:57.754Z,99930.59
2024-02-21T11:07:25.054Z,99926.66
2024-02-21T11:09:56.430Z,99929.91
2024-02-21T11:12:27.228Z,99932.72
2024-02-21T11:14:54.189Z,99927.53
2024-02-21T11:17:27.801Z,99922.72
2024-02-21T11:19:54.772Z,99916.72
2024-02-21T11:22:23.989Z,99911.44
2024-02-21T11:24:51.336Z,99911.69
2024-02-21T11:27:27.434Z,99912.81
2024-02-21T11:29:58.184Z,99902.88
2024-02-21T11:32:26.796Z,99895.66
2024-02-21T11:35:03.507Z,99897.22
2024-02-21T11:37:35.208Z,99888.00
2024-02-21T11:40:02.373Z,99887.19
2024-02-21T11:42:30.199Z,99890.38
2024-02-21T11:45:01.747Z,99884.13
2024-02-21T11:47:30.316Z,99884.19
2024-02-21T11:49:57.422Z,99871.50
2024-02-21T11:52:26.938Z,99872.75
2024-02-21T11:54:55.934Z,99870.81
2024-02-21T11:57:22.863Z,99865.69
2024-02-21T11:59:52.719Z,99855.38
2024-02-21T12:02:20.890Z,99854.63
2024-02-21T12:04:48.553Z,99853.88
2024-02-21T12:07:15.717Z,99854.69
2024-02-21T12:09:43.352Z,99845.59
2024-02-21T12:12:10.106Z,99837.25
2024-02-21T12:14:37.152Z,99838.91
2024-02-21T12:17:07.947Z,99827.38
2024-02-21T12:19:35.496Z,99838.53
2024-02-21T12:22:03.071Z,99833.78
2024-02-21T12:24:30.506Z,99826.63
2024-02-21T12:26:58.114Z,99827.84
2024-02-21T12:29:29.941Z,99819.09
2024-02-21T12:31:57.003Z,99817.53
2024-02-21T12:34:34.731Z,99820.34
2024-02-21T12:37:14.247Z,99808.81
2024-02-21T12:39:41.090Z,99812.41
2024-02-21T12:42:07.865Z,99808.81
2024-02-21T12:44:35.291Z,99814.00
2024-02-21T12:47:02.115Z,99806.88
2024-02-21T12:49:31.012Z,99798.13
2024-02-21T12:51:57.894Z,99801.69
2024-02-21T12:54:24.849Z,99798.94
2024-02-21T12:56:51.578Z,99793.44
2024-02-21T12:59:18.277Z,99797.41
2024-02-21T13:01:45.098Z,99787.47
2024-02-21T13:04:13.046Z,99784.28
2024-02-21T13:06:40.031Z,99775.16
2024-02-21T13:09:09.345Z,99768.81
2024-02-21T13:11:36.142Z,99769.59
2024-02-21T13:14:03.336Z,99766.75
2024-02-21T13:16:30.291Z,99760.41
2024-02-21T13:18:57.081Z,99758.41
2024-02-21T13:21:23.972Z,99756.81
2024-02-21T13:23:50.798Z,99757.97
2024-02-21T13:26:17.668Z,99752.00
2024-02-21T13:28:46.411Z,99754.34
2024-02-21T13:31:13.364Z,99749.19
2024-02-21T13:33:40.112Z,99747.63
2024-02-21T13:36:07.239Z,99740.09
2024-02-21T13:38:33.864Z,99730.97
2024-02-21T13:41:01.856Z,99736.13
2024-02-21T13:43:29.533Z,99723.84
2024-02-21T13:46:01.166Z,99716.31
2024-02-21T13:48:31.427Z,99723.47
2024-02-21T13:50:58.564Z,99719.09
2024-02-21T13:53:25.312Z,99721.06
2024-02-21T13:55:52.201Z,99710.34
2024-02-21T13:58:19.075Z,99709.13
2024-02-21T14:00:46.149Z,99718.22
2024-02-21T14:03:12.969Z,99713.00
2024-02-21T14:05:43.405Z,99706.66
2024-02-21T14:08:10.594Z,99704.25
2024-02-21T14:10:38.478Z,99702.66
2024-02-21T14:13:05.371Z,99701.06
2024-02-21T14:15:31.997Z,99693.50
2024-02-21T14:17:58.735Z,99689.91
2024-02-21T14:20:25.602Z,99687.91
2024-02-21T14:22:52.434Z,99685.09
2024-02-21T14:25:19.212Z,99685.94
2024-02-21T14:27:45.880Z,99693.84
2024-02-21T14:30:12.777Z,99682.38
2024-02-21T14:32:44.445Z,99684.72
2024-02-21T14:35:11.203Z,99684.31
2024-02-21T14:37:38.386Z,99676.41
2024-02-21T14:40:05.774Z,99687.88
2024-02-21T14:42:32.397Z,99683.13
2024-02-21T14:45:05.075Z,99679.16
2024-02-21T14:47:32.804Z,99676.75
2024-02-21T14:49:59.718Z,99668.41
2024-02-21T14:52:28.599Z,99672.75
2024-02-21T14:54:55.418Z,99671.56
2024-02-21T14:57:22.590Z,99667.16
2024-02-21T14:59:54.062Z,99665.16
2024-02-21T15:02:20.955Z,99656.00
2024-02-21T15:04:48.632Z,99657.94
2024-02-21T15:07:15.344Z,99652.38
2024-02-21T15:09:42.138Z,99643.25
2024-02-21T15:12:08.990Z,99649.56
2024-02-21T15:14:35.654Z,99639.63
2024-02-21T15:17:02.376Z,99631.66
2024-02-21T15:19:29.335Z,99637.59
2024-02-21T15:21:56.249Z,99635.16
2024-02-21T15:24:22.904Z,99632.34
2024-02-21T15:26:49.493Z,99630.72
2024-02-21T15:29:16.241Z,99627.91
2024-02-21T15:31:47.890Z,99623.88
2024-02-21T15:34:16.777Z,99626.16
2024-02-21T15:36:43.902Z,99627.25
2024-02-21T15:39:11.896Z,99617.63
2024-02-21T15:41:38.582Z,99621.06
2024-02-21T15:44:05.743Z,99626.84
2024-02-21T15:46:35.155Z,99624.34
2024-02-21T15:49:02.087Z,99623.47
2024-02-21T15:51:28.926Z,99615.47
2024-02-21T15:53:55.629Z,99621.31
2024-02-21T15:56:22.449Z,99622.81
2024-02-21T15:58:49.612Z,99617.19
2024-02-21T16:01:16.443Z,99609.97
2024-02-21T16:03:43.122Z,99612.66
2024-02-21T16:06:10.407Z,99607.84
2024-02-21T16:08:42.042Z,99601.78
2024-02-21T16:11:18.749Z,99598.09
2024-02-21T16:13:47.694Z,99590.03
2024-02-21T16:16:14.603Z,99596.94
2024-02-21T16:18:41.253Z,99592.78
2024-02-21T16:21:08.549Z,99595.75
2024-02-21T16:23:36.118Z,99600.34
2024-02-21T16:26:02.930Z,99595.00
2024-02-21T16:28:29.701Z,99597.13
2024-02-21T16:30:57.877Z,99598.03
2024-02-21T16:33:26.057Z,99605.78
2024-02-21T16:35:53.085Z,99598.09
2024-02-21T16:38:19.820Z,99592.00
2024-02-21T16:40:46.603Z,99599.28
2024-02-21T16:43:13.298Z,99596.84
2024-02-21T16:45:39.997Z,99596.72
2024-02-21T16:48:07.032Z,99600.50
2024-02-21T16:50:41.602Z,99596.09
2024-02-21T16:53:12.608Z,99593.63
2024-02-21T16:55:39.391Z,99598.28
2024-02-21T16:58:06.105Z,99598.56
2024-02-21T17:00:33.131Z,99605.94
2024-02-21T17:03:00.456Z,99603.47
2024-02-21T17:05:27.624Z,99602.53
2024-02-21T17:07:54.825Z,99596.88
2024-02-21T17:10:21.720Z,99606.22
2024-02-21T17:12:48.376Z,99600.19
2024-02-21T17:15:16.860Z,99605.66
2024-02-21T17:17:43.954Z,99606.28
2024-02-21T17:20:11.140Z,99601.78
2024-02-21T17:22:38.149Z,99609.81
2024-02-21T17:25:10.989Z,99602.38
2024-02-21T17:27:38.566Z,99599.19
2024-02-21T17:30:07.075Z,99597.84
2024-02-21T17:32:35.670Z,99596.97
2024-02-21T17:35:06.169Z,99600.00
2024-02-21T17:37:36.159Z,99588.28
2024-02-21T17:40:08.337Z,99582.50
2024-02-21T17:42:35.907Z,99586.22
2024-02-21T17:45:04.085Z,99577.91
2024-02-21T17:47:31.809Z,99576.34
2024-02-21T17:49:58.832Z,99572.25
2024-02-21T17:52:27.859Z,99566.41
2024-02-21T17:54:54.572Z,99569.59
2024-02-21T17:57:21.273Z,99558.16
2024-02-21T17:59:47.963Z,99558.06
2024-02-21T18:02:20.796Z,99559.91
2024-02-21T18:04:49.139Z,99550.44
2024-02-21T18:07:15.922Z,99546.31
2024-02-21T18:09:42.738Z,99543.84
2024-02-21T18:12:09.716Z,99543.75
2024-02-21T18:14:37.009Z,99543.66
2024-02-21T18:17:03.791Z,99531.84
2024-02-21T18:19:35.544Z,99517.59
2024-02-21T18:22:03.337Z,99527.69
2024-02-21T18:24:31.483Z,99523.69
2024-02-21T18:26:58.324Z,99517.84
2024-02-21T18:29:37.714Z,99518.81
2024-02-21T18:32:09.589Z,99507.63
2024-02-21T18:34:37.589Z,99506.72
2024-02-21T18:37:04.672Z,99498.81
2024-02-21T18:39:32.356Z,99485.88
2024-02-21T18:41:59.358Z,99480.19
2024-02-21T18:44:26.060Z,99476.47
2024-02-21T18:46:52.873Z,99479.91
2024-02-21T18:49:19.933Z,99478.91
2024-02-21T18:51:47.535Z,99471.25
2024-02-21T18:54:14.256Z,99467.25
2024-02-21T18:56:45.120Z,99455.94
2024-02-21T18:59:12.561Z,99462.69
2024-02-21T19:01:39.474Z,99462.25
2024-02-21T19:04:06.404Z,99460.63
2024-02-21T19:06:33.245Z,99459.38
2024-02-21T19:08:59.901Z,99454.69
2024-02-21T19:11:26.906Z,99446.44
2024-02-21T19:13:54.202Z,99445.19
2024-02-21T19:16:20.867Z,99445.09
2024-02-21T19:18:48.757Z,99444.22
2024-02-21T19:21:15.708Z,99448.59
2024-02-21T19:23:42.630Z,99436.59
2024-02-21T19:26:10.300Z,99438.81
2024-02-21T19:28:37.171Z,99437.47
2024-02-21T19:31:06.838Z,99433.56
2024-02-21T19:33:34.001Z,99432.22
2024-02-21T19:36:03.690Z,99430.59
2024-02-21T19:38:30.375Z,99426.59
2024-02-21T19:40:57.012Z,99426.53
2024-02-21T19:43:24.213Z,99423.34
2024-02-21T19:45:51.137Z,99423.22
2024-02-21T19:48:20.279Z,99419.91
2024-02-21T19:50:47.195Z,99418.13
2024-02-21T19:53:14.129Z,99418.81
2024-02-21T19:55:41.261Z,99421.09
2024-02-21T19:58:07.980Z,99416.75
2024-02-21T20:00:34.949Z,99421.78
2024-02-21T20:03:01.761Z,99407.94
2024-02-21T20:05:28.561Z,99407.44
2024-02-21T20:07:55.513Z,99417.13
2024-02-21T20:10:22.820Z,99410.25
2024-02-21T20:12:50.015Z,99404.50
2024-02-21T20:15:16.942Z,99402.56
2024-02-21T20:17:47.417Z,99398.59
2024-02-21T20:20:14.994Z,99396.28
2024-02-21T20:22:45.107Z,99387.59
2024-02-21T20:25:12.041Z,99381.19
2024-02-21T20:27:39.238Z,99379.69
2024-02-21T20:30:06.803Z,99374.31
2024-02-21T20:32:33.871Z,99364.22
2024-02-21T20:35:00.884Z,99360.34
2024-02-21T20:37:27.867Z,99356.47
2024-02-21T20:39:54.783Z,99354.47
2024-02-21T20:42:23.325Z,99359.53
2024-02-21T20:44:50.132Z,99359.09
2024-02-21T20:47:16.955Z,99357.47
2024-02-21T20:49:44.084Z,99364.03
2024-02-21T20:52:10.916Z,99364.63
2024-02-21T20:54:37.582Z,99355.97
2024-02-21T20:57:04.505Z,99352.41
2024-02-21T20:59:31.340Z,99358.22
2024-02-21T21:02:02.989Z,99350.81
2024-02-21T21:04:31.532Z,99346.22
2024-02-21T21:06:58.653Z,99338.88
2024-02-21T21:09:27.139Z,99333.03
2024-02-21T21:11:54.090Z,99318.53
2024-02-21T21:14:21.054Z,99308.44
2024-02-21T21:16:47.961Z,99314.38
2024-02-21T21:19:14.851Z,99310.47
2024-02-21T21:21:44.403Z,99305.44
2024-02-21T21:24:13.057Z,99295.94
2024-02-21T21:26:39.750Z,99296.66
2024-02-21T21:29:06.652Z,99296.06
2024-02-21T21:31:33.505Z,99288.25
2024-02-21T21:34:00.346Z,99282.94
2024-02-21T21:36:27.104Z,99287.81
2024-02-21T21:38:54.730Z,99281.63
2024-02-21T21:41:22.100Z,99277.47
2024-02-21T21:43:48.945Z,99274.78
2024-02-21T21:46:16.490Z,99265.41
2024-02-21T21:48:43.823Z,99259.22
2024-02-21T21:51:11.132Z,99247.06
2024-02-21T21:53:37.797Z,99243.63
2024-02-21T21:56:05.607Z,99239.72
2024-02-21T21:58:36.215Z,99233.44
2024-02-21T22:01:03.450Z,99230.25
2024-02-21T22:03:30.183Z,99235.00
2024-02-21T22:05:56.932Z,99225.72
2024-02-21T22:08:23.573Z,99226.94
2024-02-21T22:10:52.074Z,99222.69
2024-02-21T22:13:19.717Z,99213.28
2024-02-21T22:15:47.754Z,99208.22
2024-02-21T22:18:14.872Z,99197.22
2024-02-21T22:20:41.960Z,99201.59
2024-02-21T22:23:10.781Z,99196.88
2024-02-21T22:25:41.464Z,99202.38
2024-02-21T22:28:08.960Z,99195.38
2024-02-21T22:30:36.203Z,99189.44
2024-02-21T22:33:03.130Z,99194.94
2024-02-21T22:35:29.968Z,99192.75
2024-02-21T22:37:56.745Z,99175.38
2024-02-21T22:40:23.384Z,99167.56
2024-02-21T22:42:50.005Z,99162.97
2024-02-21T22:45:17.960Z,99167.75
2024-02-21T22:47:44.722Z,99158.34
2024-02-21T22:50:11.770Z,99160.75
2024-02-21T22:52:38.493Z,99157.63
2024-02-21T22:55:05.726Z,99156.47
2024-02-21T22:57:32.737Z,99149.81
2024-02-21T22:59:59.452Z,99143.59
2024-02-21T23:02:26.160Z,99145.22
2024-02-21T23:04:53.952Z,99135.78
2024-02-21T23:07:20.868Z,99136.97
2024-02-21T23:09:47.607Z,99123.66
2024-02-21T23:12:18.178Z,99113.09
2024-02-21T23:14:45.215Z,99117.78
2024-02-21T23:17:11.968Z,99124.78
2024-02-21T23:19:38.816Z,99114.97
2024-02-21T23:22:05.585Z,99109.47
2024-02-21T23:24:35.228Z,99105.13
2024-02-21T23:27:02.669Z,99101.53
2024-02-21T23:29:29.387Z,99099.50
2024-02-21T23:31:56.135Z,99094.81
2024-02-21T23:34:22.876Z,99088.84
2024-02-21T23:36:49.672Z,99077.09
2024-02-21T23:39:16.461Z,99073.09
2024-02-21T23:41:43.106Z,99073.88
2024-02-21T23:44:09.761Z,99069.13
2024-02-21T23:46:36.853Z,99058.47
2024-02-21T23:49:03.665Z,99066.28
2024-02-21T23:51:31.224Z,99061.22
2024-02-21T23:53:57.836Z,99056.09
2024-02-21T23:56:24.538Z,99055.69
2024-02-21T23:58:51.269Z,99053.66
